sensor_id;sensor_type;location;lat;lon;timestamp;temperature;humidity
73792;DHT22;62122;41.112;16.694;2022-09-06T00:01:56;21.37;76.89
73792;DHT22;62122;41.112;16.694;2022-09-06T00:05:03;21.30;76.93
73792;DHT22;62122;41.112;16.694;2022-09-06T00:08:07;21.27;76.73
73792;DHT22;62122;41.112;16.694;2022-09-06T00:11:12;21.19;77.24
73792;DHT22;62122;41.112;16.694;2022-09-06T00:14:16;21.17;77.31
73792;DHT22;62122;41.112;16.694;2022-09-06T00:17:20;21.07;77.82
73792;DHT22;62122;41.112;16.694;2022-09-06T00:20:24;21.14;77.71
73792;DHT22;62122;41.112;16.694;2022-09-06T00:23:31;21.19;77.43
73792;DHT22;62122;41.112;16.694;2022-09-06T00:26:35;21.16;77.62
73792;DHT22;62122;41.112;16.694;2022-09-06T00:29:39;21.19;77.26
73792;DHT22;62122;41.112;16.694;2022-09-06T00:32:43;21.19;76.99
73792;DHT22;62122;41.112;16.694;2022-09-06T00:35:46;21.10;77.07
73792;DHT22;62122;41.112;16.694;2022-09-06T00:38:52;21.10;77.44
73792;DHT22;62122;41.112;16.694;2022-09-06T00:41:56;21.02;77.74
73792;DHT22;62122;41.112;16.694;2022-09-06T00:45:00;20.90;77.89
73792;DHT22;62122;41.112;16.694;2022-09-06T00:48:05;20.78;78.23
73792;DHT22;62122;41.112;16.694;2022-09-06T00:51:11;20.79;78.33
73792;DHT22;62122;41.112;16.694;2022-09-06T00:54:15;20.80;78.10
73792;DHT22;62122;41.112;16.694;2022-09-06T00:57:21;20.89;78.18
73792;DHT22;62122;41.112;16.694;2022-09-06T01:00:29;20.85;78.04
73792;DHT22;62122;41.112;16.694;2022-09-06T01:03:34;20.97;77.47
73792;DHT22;62122;41.112;16.694;2022-09-06T01:06:43;21.03;77.16
73792;DHT22;62122;41.112;16.694;2022-09-06T01:13:36;20.95;76.69
73792;DHT22;62122;41.112;16.694;2022-09-06T01:30:23;21.14;75.19
73792;DHT22;62122;41.112;16.694;2022-09-06T01:34:28;21.14;74.80
73792;DHT22;62122;41.112;16.694;2022-09-06T01:37:09;21.14;74.33
73792;DHT22;62122;41.112;16.694;2022-09-06T01:40:16;21.22;73.97
73792;DHT22;62122;41.112;16.694;2022-09-06T01:43:30;21.22;73.62
73792;DHT22;62122;41.112;16.694;2022-09-06T02:00:07;21.13;72.41
73792;DHT22;62122;41.112;16.694;2022-09-06T02:03:44;20.99;72.80
73792;DHT22;62122;41.112;16.694;2022-09-06T02:06:58;21.02;72.50
73792;DHT22;62122;41.112;16.694;2022-09-06T02:10:29;20.99;71.73
73792;DHT22;62122;41.112;16.694;2022-09-06T02:16:45;20.96;70.45
73792;DHT22;62122;41.112;16.694;2022-09-06T02:19:58;20.97;69.92
73792;DHT22;62122;41.112;16.694;2022-09-06T02:23:07;20.92;69.13
73792;DHT22;62122;41.112;16.694;2022-09-06T02:26:22;20.95;68.75
73792;DHT22;62122;41.112;16.694;2022-09-06T02:29:27;20.90;68.75
73792;DHT22;62122;41.112;16.694;2022-09-06T02:32:36;20.95;68.04
73792;DHT22;62122;41.112;16.694;2022-09-06T02:35:44;20.87;67.85
73792;DHT22;62122;41.112;16.694;2022-09-06T02:38:48;20.82;67.59
73792;DHT22;62122;41.112;16.694;2022-09-06T02:41:53;20.86;67.31
73792;DHT22;62122;41.112;16.694;2022-09-06T02:44:57;20.89;68.02
73792;DHT22;62122;41.112;16.694;2022-09-06T02:48:02;20.85;66.90
73792;DHT22;62122;41.112;16.694;2022-09-06T02:51:07;20.85;66.76
73792;DHT22;62122;41.112;16.694;2022-09-06T02:54:11;20.86;66.56
73792;DHT22;62122;41.112;16.694;2022-09-06T02:57:16;20.85;66.18
73792;DHT22;62122;41.112;16.694;2022-09-06T03:00:20;20.90;65.92
73792;DHT22;62122;41.112;16.694;2022-09-06T03:03:24;20.89;65.81
73792;DHT22;62122;41.112;16.694;2022-09-06T03:06:29;20.86;65.93
73792;DHT22;62122;41.112;16.694;2022-09-06T03:09:33;20.76;66.34
73792;DHT22;62122;41.112;16.694;2022-09-06T03:12:41;20.78;65.70
73792;DHT22;62122;41.112;16.694;2022-09-06T03:15:50;20.72;65.30
73792;DHT22;62122;41.112;16.694;2022-09-06T03:18:54;20.68;65.82
73792;DHT22;62122;41.112;16.694;2022-09-06T03:21:58;20.64;65.77
73792;DHT22;62122;41.112;16.694;2022-09-06T03:25:02;20.64;65.71
73792;DHT22;62122;41.112;16.694;2022-09-06T03:28:06;20.68;64.88
73792;DHT22;62122;41.112;16.694;2022-09-06T03:31:10;20.59;65.42
73792;DHT22;62122;41.112;16.694;2022-09-06T03:34:14;20.55;65.13
73792;DHT22;62122;41.112;16.694;2022-09-06T03:37:20;20.61;64.53
73792;DHT22;62122;41.112;16.694;2022-09-06T03:40:24;20.58;64.50
73792;DHT22;62122;41.112;16.694;2022-09-06T03:43:28;20.53;64.58
73792;DHT22;62122;41.112;16.694;2022-09-06T03:46:36;20.51;64.65
73792;DHT22;62122;41.112;16.694;2022-09-06T03:49:41;20.40;65.05
73792;DHT22;62122;41.112;16.694;2022-09-06T03:52:46;20.41;64.92
73792;DHT22;62122;41.112;16.694;2022-09-06T03:55:53;20.35;65.73
73792;DHT22;62122;41.112;16.694;2022-09-06T03:58:58;20.34;65.38
73792;DHT22;62122;41.112;16.694;2022-09-06T04:02:02;20.32;65.39
73792;DHT22;62122;41.112;16.694;2022-09-06T04:05:08;20.30;65.54
73792;DHT22;62122;41.112;16.694;2022-09-06T04:08:12;20.24;65.72
73792;DHT22;62122;41.112;16.694;2022-09-06T04:11:18;20.21;65.87
73792;DHT22;62122;41.112;16.694;2022-09-06T04:14:23;20.14;66.13
73792;DHT22;62122;41.112;16.694;2022-09-06T04:17:26;20.07;67.08
73792;DHT22;62122;41.112;16.694;2022-09-06T04:20:30;20.04;66.75
73792;DHT22;62122;41.112;16.694;2022-09-06T04:23:34;20.11;66.54
73792;DHT22;62122;41.112;16.694;2022-09-06T04:26:38;20.00;67.03
73792;DHT22;62122;41.112;16.694;2022-09-06T04:29:42;20.04;67.09
73792;DHT22;62122;41.112;16.694;2022-09-06T04:32:46;19.90;67.62
73792;DHT22;62122;41.112;16.694;2022-09-06T04:35:52;20.01;67.30
73792;DHT22;62122;41.112;16.694;2022-09-06T04:38:57;19.87;67.86
73792;DHT22;62122;41.112;16.694;2022-09-06T04:42:01;19.94;68.01
73792;DHT22;62122;41.112;16.694;2022-09-06T04:45:05;20.06;67.61
73792;DHT22;62122;41.112;16.694;2022-09-06T04:48:11;20.13;67.77
73792;DHT22;62122;41.112;16.694;2022-09-06T04:51:15;20.13;67.74
73792;DHT22;62122;41.112;16.694;2022-09-06T04:54:19;20.23;67.68
73792;DHT22;62122;41.112;16.694;2022-09-06T04:57:23;20.21;67.73
73792;DHT22;62122;41.112;16.694;2022-09-06T05:00:29;20.38;67.51
73792;DHT22;62122;41.112;16.694;2022-09-06T05:03:35;20.47;67.51
73792;DHT22;62122;41.112;16.694;2022-09-06T05:06:39;20.45;67.69
73792;DHT22;62122;41.112;16.694;2022-09-06T05:09:44;20.48;67.71
73792;DHT22;62122;41.112;16.694;2022-09-06T05:12:49;20.55;67.46
73792;DHT22;62122;41.112;16.694;2022-09-06T05:15:53;20.45;67.87
73792;DHT22;62122;41.112;16.694;2022-09-06T05:18:58;20.67;67.44
73792;DHT22;62122;41.112;16.694;2022-09-06T05:22:02;20.80;67.22
73792;DHT22;62122;41.112;16.694;2022-09-06T05:25:08;20.96;66.78
73792;DHT22;62122;41.112;16.694;2022-09-06T05:28:12;21.00;66.51
73792;DHT22;62122;41.112;16.694;2022-09-06T05:31:25;20.85;67.42
73792;DHT22;62122;41.112;16.694;2022-09-06T05:34:30;20.96;66.94
73792;DHT22;62122;41.112;16.694;2022-09-06T05:37:34;21.03;67.06
73792;DHT22;62122;41.112;16.694;2022-09-06T05:40:38;21.31;66.30
73792;DHT22;62122;41.112;16.694;2022-09-06T05:43:42;21.38;66.19
73792;DHT22;62122;41.112;16.694;2022-09-06T05:46:46;21.52;65.88
73792;DHT22;62122;41.112;16.694;2022-09-06T05:49:49;21.55;65.86
73792;DHT22;62122;41.112;16.694;2022-09-06T05:52:55;21.71;65.68
73792;DHT22;62122;41.112;16.694;2022-09-06T05:55:59;21.74;65.68
73792;DHT22;62122;41.112;16.694;2022-09-06T05:59:03;21.82;65.62
73792;DHT22;62122;41.112;16.694;2022-09-06T06:02:08;22.02;65.16
73792;DHT22;62122;41.112;16.694;2022-09-06T06:05:12;22.12;64.99
73792;DHT22;62122;41.112;16.694;2022-09-06T06:08:17;22.35;64.35
73792;DHT22;62122;41.112;16.694;2022-09-06T06:11:22;22.60;63.69
73792;DHT22;62122;41.112;16.694;2022-09-06T06:14:26;22.72;63.36
73792;DHT22;62122;41.112;16.694;2022-09-06T06:17:29;22.91;62.72
73792;DHT22;62122;41.112;16.694;2022-09-06T06:20:34;23.09;62.23
73792;DHT22;62122;41.112;16.694;2022-09-06T06:23:38;23.19;61.70
73792;DHT22;62122;41.112;16.694;2022-09-06T06:26:43;23.43;61.09
73792;DHT22;62122;41.112;16.694;2022-09-06T06:29:47;23.58;60.62
73792;DHT22;62122;41.112;16.694;2022-09-06T06:32:53;23.88;59.93
73792;DHT22;62122;41.112;16.694;2022-09-06T06:36:19;24.16;58.76
73792;DHT22;62122;41.112;16.694;2022-09-06T06:39:33;24.64;57.32
73792;DHT22;62122;41.112;16.694;2022-09-06T06:42:37;25.11;55.69
73792;DHT22;62122;41.112;16.694;2022-09-06T06:45:40;26.18;53.08
73792;DHT22;62122;41.112;16.694;2022-09-06T06:48:45;29.22;45.33
73792;DHT22;62122;41.112;16.694;2022-09-06T06:51:49;30.55;41.87
73792;DHT22;62122;41.112;16.694;2022-09-06T06:54:53;33.38;36.46
73792;DHT22;62122;41.112;16.694;2022-09-06T06:58:00;34.81;33.86
73792;DHT22;62122;41.112;16.694;2022-09-06T07:01:04;36.79;30.69
73792;DHT22;62122;41.112;16.694;2022-09-06T07:04:10;37.38;27.99
73792;DHT22;62122;41.112;16.694;2022-09-06T07:07:14;36.77;29.21
73792;DHT22;62122;41.112;16.694;2022-09-06T07:10:20;37.60;27.77
73792;DHT22;62122;41.112;16.694;2022-09-06T07:13:23;38.81;26.75
73792;DHT22;62122;41.112;16.694;2022-09-06T07:16:27;39.03;25.77
73792;DHT22;62122;41.112;16.694;2022-09-06T07:19:32;39.78;24.81
73792;DHT22;62122;41.112;16.694;2022-09-06T07:22:37;39.08;25.25
73792;DHT22;62122;41.112;16.694;2022-09-06T07:25:40;38.43;25.31
73792;DHT22;62122;41.112;16.694;2022-09-06T07:28:44;38.28;25.36
73792;DHT22;62122;41.112;16.694;2022-09-06T07:31:49;36.73;26.29
73792;DHT22;62122;41.112;16.694;2022-09-06T07:34:55;36.69;26.64
73792;DHT22;62122;41.112;16.694;2022-09-06T07:38:00;37.10;27.10
73792;DHT22;62122;41.112;16.694;2022-09-06T07:41:06;36.83;27.56
73792;DHT22;62122;41.112;16.694;2022-09-06T07:44:10;37.61;26.41
73792;DHT22;62122;41.112;16.694;2022-09-06T07:47:14;36.39;27.05
73792;DHT22;62122;41.112;16.694;2022-09-06T07:50:20;34.13;30.79
73792;DHT22;62122;41.112;16.694;2022-09-06T07:53:24;37.24;27.34
73792;DHT22;62122;41.112;16.694;2022-09-06T07:56:28;37.58;26.29
73792;DHT22;62122;41.112;16.694;2022-09-06T07:59:32;36.00;27.62
73792;DHT22;62122;41.112;16.694;2022-09-06T08:02:37;34.64;30.35
73792;DHT22;62122;41.112;16.694;2022-09-06T08:05:41;34.58;30.83
73792;DHT22;62122;41.112;16.694;2022-09-06T08:08:45;36.48;28.58
73792;DHT22;62122;41.112;16.694;2022-09-06T08:11:48;35.77;28.34
73792;DHT22;62122;41.112;16.694;2022-09-06T08:14:53;36.17;27.50
73792;DHT22;62122;41.112;16.694;2022-09-06T08:17:59;36.31;27.49
73792;DHT22;62122;41.112;16.694;2022-09-06T08:21:08;35.74;27.48
73792;DHT22;62122;41.112;16.694;2022-09-06T08:24:16;34.43;29.34
73792;DHT22;62122;41.112;16.694;2022-09-06T08:27:21;35.23;28.75
73792;DHT22;62122;41.112;16.694;2022-09-06T08:30:26;34.60;29.24
73792;DHT22;62122;41.112;16.694;2022-09-06T08:33:32;32.11;31.79
73792;DHT22;62122;41.112;16.694;2022-09-06T08:36:35;29.82;35.69
73792;DHT22;62122;41.112;16.694;2022-09-06T08:39:40;29.63;36.27
73792;DHT22;62122;41.112;16.694;2022-09-06T08:42:47;29.43;36.89
73792;DHT22;62122;41.112;16.694;2022-09-06T08:45:55;29.74;36.43
73792;DHT22;62122;41.112;16.694;2022-09-06T08:49:00;28.98;37.99
73792;DHT22;62122;41.112;16.694;2022-09-06T08:59:11;28.53;38.81
73792;DHT22;62122;41.112;16.694;2022-09-06T09:02:20;28.53;38.29
73792;DHT22;62122;41.112;16.694;2022-09-06T09:05:30;28.47;39.33
73792;DHT22;62122;41.112;16.694;2022-09-06T09:11:58;28.85;38.56
73792;DHT22;62122;41.112;16.694;2022-09-06T09:15:09;28.88;38.27
73792;DHT22;62122;41.112;16.694;2022-09-06T09:18:21;28.85;37.98
73792;DHT22;62122;41.112;16.694;2022-09-06T09:21:27;28.98;37.90
73792;DHT22;62122;41.112;16.694;2022-09-06T09:24:34;28.82;38.29
73792;DHT22;62122;41.112;16.694;2022-09-06T09:27:39;29.00;37.98
73792;DHT22;62122;41.112;16.694;2022-09-06T09:30:50;28.85;38.17
73792;DHT22;62122;41.112;16.694;2022-09-06T09:33:56;29.15;37.82
73792;DHT22;62122;41.112;16.694;2022-09-06T09:37:20;29.46;37.29
73792;DHT22;62122;41.112;16.694;2022-09-06T09:43:30;29.17;37.68
73792;DHT22;62122;41.112;16.694;2022-09-06T09:46:37;29.16;37.51
73792;DHT22;62122;41.112;16.694;2022-09-06T09:49:42;29.44;37.04
73792;DHT22;62122;41.112;16.694;2022-09-06T09:52:46;29.49;37.08
73792;DHT22;62122;41.112;16.694;2022-09-06T09:55:55;29.68;36.61
73792;DHT22;62122;41.112;16.694;2022-09-06T09:59:01;29.86;35.78
73792;DHT22;62122;41.112;16.694;2022-09-06T10:02:29;29.64;35.96
73792;DHT22;62122;41.112;16.694;2022-09-06T10:05:34;29.91;36.09
73792;DHT22;62122;41.112;16.694;2022-09-06T10:08:40;29.81;36.19
73792;DHT22;62122;41.112;16.694;2022-09-06T10:11:57;29.85;36.96
73792;DHT22;62122;41.112;16.694;2022-09-06T10:15:01;30.15;37.68
73792;DHT22;62122;41.112;16.694;2022-09-06T10:21:25;29.49;39.12
73792;DHT22;62122;41.112;16.694;2022-09-06T10:31:33;29.68;39.45
73792;DHT22;62122;41.112;16.694;2022-09-06T10:48:40;29.50;39.67
73792;DHT22;62122;41.112;16.694;2022-09-06T10:52:00;29.33;39.49
73792;DHT22;62122;41.112;16.694;2022-09-06T10:55:08;29.81;38.59
73792;DHT22;62122;41.112;16.694;2022-09-06T10:58:23;30.06;38.29
73792;DHT22;62122;41.112;16.694;2022-09-06T11:04:42;29.54;38.84
73792;DHT22;62122;41.112;16.694;2022-09-06T11:07:58;29.38;38.86
73792;DHT22;62122;41.112;16.694;2022-09-06T11:11:14;29.36;37.79
73792;DHT22;62122;41.112;16.694;2022-09-06T11:14:19;29.94;37.83
73792;DHT22;62122;41.112;16.694;2022-09-06T11:17:41;29.86;37.57
73792;DHT22;62122;41.112;16.694;2022-09-06T11:24:15;30.13;37.45
73792;DHT22;62122;41.112;16.694;2022-09-06T11:30:34;29.88;37.09
73792;DHT22;62122;41.112;16.694;2022-09-06T11:33:39;29.95;36.99
73792;DHT22;62122;41.112;16.694;2022-09-06T11:43:51;29.73;37.67
73792;DHT22;62122;41.112;16.694;2022-09-06T11:46:57;29.91;37.95
73792;DHT22;62122;41.112;16.694;2022-09-06T11:53:32;31.08;36.02
73792;DHT22;62122;41.112;16.694;2022-09-06T12:00:01;30.30;38.03
73792;DHT22;62122;41.112;16.694;2022-09-06T12:07:10;30.28;38.83
73792;DHT22;62122;41.112;16.694;2022-09-06T12:13:58;30.39;39.39
73792;DHT22;62122;41.112;16.694;2022-09-06T12:20:07;30.18;39.98
73792;DHT22;62122;41.112;16.694;2022-09-06T12:26:51;29.97;40.84
73792;DHT22;62122;41.112;16.694;2022-09-06T12:30:13;29.88;41.13
73792;DHT22;62122;41.112;16.694;2022-09-06T12:33:35;29.40;42.61
73792;DHT22;62122;41.112;16.694;2022-09-06T12:36:48;29.78;42.52
73792;DHT22;62122;41.112;16.694;2022-09-06T12:39:56;29.71;41.74
73792;DHT22;62122;41.112;16.694;2022-09-06T12:43:03;29.91;42.25
73792;DHT22;62122;41.112;16.694;2022-09-06T12:46:07;30.01;41.47
73792;DHT22;62122;41.112;16.694;2022-09-06T12:49:11;29.89;41.90
73792;DHT22;62122;41.112;16.694;2022-09-06T12:52:18;29.65;41.99
73792;DHT22;62122;41.112;16.694;2022-09-06T12:55:31;29.77;42.12
73792;DHT22;62122;41.112;16.694;2022-09-06T12:58:37;30.09;41.90
73792;DHT22;62122;41.112;16.694;2022-09-06T13:05:05;29.86;42.55
73792;DHT22;62122;41.112;16.694;2022-09-06T13:08:23;29.98;41.93
73792;DHT22;62122;41.112;16.694;2022-09-06T13:11:33;29.43;43.18
73792;DHT22;62122;41.112;16.694;2022-09-06T13:14:38;29.61;43.62
73792;DHT22;62122;41.112;16.694;2022-09-06T13:17:42;30.00;41.46
73792;DHT22;62122;41.112;16.694;2022-09-06T13:20:57;30.32;41.60
73792;DHT22;62122;41.112;16.694;2022-09-06T13:24:17;30.33;41.65
73792;DHT22;62122;41.112;16.694;2022-09-06T13:27:26;29.95;41.64
73792;DHT22;62122;41.112;16.694;2022-09-06T13:30:40;29.81;41.53
73792;DHT22;62122;41.112;16.694;2022-09-06T13:33:54;30.46;40.40
73792;DHT22;62122;41.112;16.694;2022-09-06T13:37:03;30.70;40.67
73792;DHT22;62122;41.112;16.694;2022-09-06T13:40:39;30.56;39.63
73792;DHT22;62122;41.112;16.694;2022-09-06T13:43:45;30.40;40.36
73792;DHT22;62122;41.112;16.694;2022-09-06T13:46:51;29.78;42.70
73792;DHT22;62122;41.112;16.694;2022-09-06T13:49:58;29.80;42.73
73792;DHT22;62122;41.112;16.694;2022-09-06T13:53:04;29.51;42.99
73792;DHT22;62122;41.112;16.694;2022-09-06T13:56:08;29.46;44.95
73792;DHT22;62122;41.112;16.694;2022-09-06T13:59:12;29.74;44.28
73792;DHT22;62122;41.112;16.694;2022-09-06T14:02:17;30.19;44.29
73792;DHT22;62122;41.112;16.694;2022-09-06T14:05:25;30.09;45.56
73792;DHT22;62122;41.112;16.694;2022-09-06T14:08:29;29.89;44.94
73792;DHT22;62122;41.112;16.694;2022-09-06T14:11:35;29.33;46.54
73792;DHT22;62122;41.112;16.694;2022-09-06T14:14:41;29.80;45.32
73792;DHT22;62122;41.112;16.694;2022-09-06T14:17:48;30.13;45.28
73792;DHT22;62122;41.112;16.694;2022-09-06T14:20:54;29.91;45.87
73792;DHT22;62122;41.112;16.694;2022-09-06T14:24:02;30.06;46.49
73792;DHT22;62122;41.112;16.694;2022-09-06T14:27:06;30.33;45.15
73792;DHT22;62122;41.112;16.694;2022-09-06T14:30:11;30.04;46.51
73792;DHT22;62122;41.112;16.694;2022-09-06T14:33:17;29.22;47.16
73792;DHT22;62122;41.112;16.694;2022-09-06T14:36:24;29.34;46.04
73792;DHT22;62122;41.112;16.694;2022-09-06T14:39:29;29.34;46.76
73792;DHT22;62122;41.112;16.694;2022-09-06T14:42:32;29.77;45.84
73792;DHT22;62122;41.112;16.694;2022-09-06T14:45:39;30.29;44.34
73792;DHT22;62122;41.112;16.694;2022-09-06T14:48:44;30.16;42.60
73792;DHT22;62122;41.112;16.694;2022-09-06T14:51:50;29.89;42.83
73792;DHT22;62122;41.112;16.694;2022-09-06T14:54:54;29.80;44.17
73792;DHT22;62122;41.112;16.694;2022-09-06T14:57:58;29.64;44.14
73792;DHT22;62122;41.112;16.694;2022-09-06T15:01:24;29.68;44.68
73792;DHT22;62122;41.112;16.694;2022-09-06T15:04:29;29.25;44.55
73792;DHT22;62122;41.112;16.694;2022-09-06T15:07:33;29.58;43.54
73792;DHT22;62122;41.112;16.694;2022-09-06T15:10:38;29.70;44.91
73792;DHT22;62122;41.112;16.694;2022-09-06T15:13:42;29.29;46.42
73792;DHT22;62122;41.112;16.694;2022-09-06T15:16:48;29.02;46.97
73792;DHT22;62122;41.112;16.694;2022-09-06T15:19:55;29.30;47.15
73792;DHT22;62122;41.112;16.694;2022-09-06T15:23:00;29.34;46.95
73792;DHT22;62122;41.112;16.694;2022-09-06T15:26:07;29.65;46.50
73792;DHT22;62122;41.112;16.694;2022-09-06T15:29:13;29.67;46.50
73792;DHT22;62122;41.112;16.694;2022-09-06T15:32:17;29.78;46.23
73792;DHT22;62122;41.112;16.694;2022-09-06T15:35:21;29.64;44.72
73792;DHT22;62122;41.112;16.694;2022-09-06T15:38:25;29.84;44.61
73792;DHT22;62122;41.112;16.694;2022-09-06T15:41:30;29.68;44.48
73792;DHT22;62122;41.112;16.694;2022-09-06T15:44:35;29.40;45.51
73792;DHT22;62122;41.112;16.694;2022-09-06T15:47:39;29.20;46.28
73792;DHT22;62122;41.112;16.694;2022-09-06T15:50:43;29.26;46.48
73792;DHT22;62122;41.112;16.694;2022-09-06T15:53:48;29.27;47.75
73792;DHT22;62122;41.112;16.694;2022-09-06T15:56:51;29.13;49.39
73792;DHT22;62122;41.112;16.694;2022-09-06T15:59:55;29.42;49.51
73792;DHT22;62122;41.112;16.694;2022-09-06T16:03:01;29.17;49.88
73792;DHT22;62122;41.112;16.694;2022-09-06T16:06:07;28.99;49.79
73792;DHT22;62122;41.112;16.694;2022-09-06T16:09:13;29.22;48.63
73792;DHT22;62122;41.112;16.694;2022-09-06T16:12:17;28.96;48.11
73792;DHT22;62122;41.112;16.694;2022-09-06T16:15:21;28.95;47.92
73792;DHT22;62122;41.112;16.694;2022-09-06T16:18:25;29.06;47.97
73792;DHT22;62122;41.112;16.694;2022-09-06T16:21:30;29.02;48.04
73792;DHT22;62122;41.112;16.694;2022-09-06T16:24:35;29.05;48.23
73792;DHT22;62122;41.112;16.694;2022-09-06T16:27:40;28.94;49.47
73792;DHT22;62122;41.112;16.694;2022-09-06T16:30:44;28.72;50.36
73792;DHT22;62122;41.112;16.694;2022-09-06T16:33:50;28.61;49.75
73792;DHT22;62122;41.112;16.694;2022-09-06T16:36:56;28.39;50.66
73792;DHT22;62122;41.112;16.694;2022-09-06T16:40:00;28.34;50.56
73792;DHT22;62122;41.112;16.694;2022-09-06T16:43:04;28.14;50.77
73792;DHT22;62122;41.112;16.694;2022-09-06T16:46:08;28.13;49.40
73792;DHT22;62122;41.112;16.694;2022-09-06T16:49:13;28.09;48.84
73792;DHT22;62122;41.112;16.694;2022-09-06T16:52:19;27.97;48.34
73792;DHT22;62122;41.112;16.694;2022-09-06T16:55:23;27.78;48.65
73792;DHT22;62122;41.112;16.694;2022-09-06T16:58:27;27.61;48.96
73792;DHT22;62122;41.112;16.694;2022-09-06T17:01:34;27.54;49.56
73792;DHT22;62122;41.112;16.694;2022-09-06T17:04:38;27.42;51.02
73792;DHT22;62122;41.112;16.694;2022-09-06T17:07:43;27.34;52.09
73792;DHT22;62122;41.112;16.694;2022-09-06T17:10:49;27.18;53.22
73792;DHT22;62122;41.112;16.694;2022-09-06T17:13:54;27.07;54.03
73792;DHT22;62122;41.112;16.694;2022-09-06T17:16:59;26.97;54.82
73792;DHT22;62122;41.112;16.694;2022-09-06T17:20:09;26.87;55.36
73792;DHT22;62122;41.112;16.694;2022-09-06T17:23:14;26.87;55.21
73792;DHT22;62122;41.112;16.694;2022-09-06T17:26:19;26.79;55.33
73792;DHT22;62122;41.112;16.694;2022-09-06T17:29:24;26.72;55.44
73792;DHT22;62122;41.112;16.694;2022-09-06T17:32:30;26.73;55.44
73792;DHT22;62122;41.112;16.694;2022-09-06T17:35:36;26.68;55.71
73792;DHT22;62122;41.112;16.694;2022-09-06T17:38:41;26.65;56.24
73792;DHT22;62122;41.112;16.694;2022-09-06T17:41:48;26.65;56.36
73792;DHT22;62122;41.112;16.694;2022-09-06T17:44:53;26.53;56.87
73792;DHT22;62122;41.112;16.694;2022-09-06T17:47:57;26.49;57.40
73792;DHT22;62122;41.112;16.694;2022-09-06T17:51:08;26.44;57.67
73792;DHT22;62122;41.112;16.694;2022-09-06T17:54:13;26.34;58.09
73792;DHT22;62122;41.112;16.694;2022-09-06T17:57:17;26.29;58.39
73792;DHT22;62122;41.112;16.694;2022-09-06T18:00:22;26.28;58.57
73792;DHT22;62122;41.112;16.694;2022-09-06T18:03:27;26.32;58.31
73792;DHT22;62122;41.112;16.694;2022-09-06T18:06:34;26.18;58.63
73792;DHT22;62122;41.112;16.694;2022-09-06T18:09:39;26.18;58.65
73792;DHT22;62122;41.112;16.694;2022-09-06T18:21:08;26.05;57.01
73792;DHT22;62122;41.112;16.694;2022-09-06T18:24:12;26.00;56.33
73792;DHT22;62122;41.112;16.694;2022-09-06T18:27:18;25.89;56.27
73792;DHT22;62122;41.112;16.694;2022-09-06T18:30:22;25.89;56.26
73792;DHT22;62122;41.112;16.694;2022-09-06T18:33:26;25.83;56.34
73792;DHT22;62122;41.112;16.694;2022-09-06T18:36:31;25.73;56.58
73792;DHT22;62122;41.112;16.694;2022-09-06T18:39:35;25.69;56.79
73792;DHT22;62122;41.112;16.694;2022-09-06T18:42:43;25.65;56.56
73792;DHT22;62122;41.112;16.694;2022-09-06T18:45:48;25.63;56.65
73792;DHT22;62122;41.112;16.694;2022-09-06T18:48:55;25.61;56.68
73792;DHT22;62122;41.112;16.694;2022-09-06T18:52:01;25.50;56.70
73792;DHT22;62122;41.112;16.694;2022-09-06T18:55:06;25.41;56.99
73792;DHT22;62122;41.112;16.694;2022-09-06T18:58:10;25.32;57.25
73792;DHT22;62122;41.112;16.694;2022-09-06T19:01:16;25.24;57.50
73792;DHT22;62122;41.112;16.694;2022-09-06T19:04:22;25.18;57.58
73792;DHT22;62122;41.112;16.694;2022-09-06T19:07:27;25.17;57.76
73792;DHT22;62122;41.112;16.694;2022-09-06T19:10:31;25.12;57.77
73792;DHT22;62122;41.112;16.694;2022-09-06T19:13:37;24.99;58.05
73792;DHT22;62122;41.112;16.694;2022-09-06T19:16:41;24.92;58.10
73792;DHT22;62122;41.112;16.694;2022-09-06T19:19:46;24.97;58.00
73792;DHT22;62122;41.112;16.694;2022-09-06T19:22:50;24.98;58.01
73792;DHT22;62122;41.112;16.694;2022-09-06T19:25:59;24.91;57.90
73792;DHT22;62122;41.112;16.694;2022-09-06T19:29:06;24.91;57.88
73792;DHT22;62122;41.112;16.694;2022-09-06T19:32:12;25.01;57.23
73792;DHT22;62122;41.112;16.694;2022-09-06T19:35:17;24.95;57.32
73792;DHT22;62122;41.112;16.694;2022-09-06T19:38:22;24.95;57.13
73792;DHT22;62122;41.112;16.694;2022-09-06T19:41:28;24.77;57.72
73792;DHT22;62122;41.112;16.694;2022-09-06T19:44:33;24.56;58.34
73792;DHT22;62122;41.112;16.694;2022-09-06T19:47:36;24.50;58.36
73792;DHT22;62122;41.112;16.694;2022-09-06T19:50:42;24.05;59.29
73792;DHT22;62122;41.112;16.694;2022-09-06T19:53:49;23.85;59.97
73792;DHT22;62122;41.112;16.694;2022-09-06T19:56:55;23.79;60.09
73792;DHT22;62122;41.112;16.694;2022-09-06T19:59:59;23.84;59.73
73792;DHT22;62122;41.112;16.694;2022-09-06T20:03:03;24.01;59.16
73792;DHT22;62122;41.112;16.694;2022-09-06T20:06:10;23.97;58.74
73792;DHT22;62122;41.112;16.694;2022-09-06T20:09:14;24.00;58.04
73792;DHT22;62122;41.112;16.694;2022-09-06T20:12:37;24.05;57.33
73792;DHT22;62122;41.112;16.694;2022-09-06T20:15:43;24.05;57.21
73792;DHT22;62122;41.112;16.694;2022-09-06T20:18:47;24.08;57.08
73792;DHT22;62122;41.112;16.694;2022-09-06T20:21:47;24.05;56.86
73792;DHT22;62122;41.112;16.694;2022-09-06T20:24:51;24.16;56.40
73792;DHT22;62122;41.112;16.694;2022-09-06T20:27:55;24.06;56.29
73792;DHT22;62122;41.112;16.694;2022-09-06T20:31:11;24.02;56.18
73792;DHT22;62122;41.112;16.694;2022-09-06T20:34:16;23.95;56.11
73792;DHT22;62122;41.112;16.694;2022-09-06T20:37:21;23.98;55.80
73792;DHT22;62122;41.112;16.694;2022-09-06T20:40:25;23.91;55.79
73792;DHT22;62122;41.112;16.694;2022-09-06T20:43:30;23.94;55.55
73792;DHT22;62122;41.112;16.694;2022-09-06T20:46:37;23.91;55.35
73792;DHT22;62122;41.112;16.694;2022-09-06T20:49:42;23.88;55.15
73792;DHT22;62122;41.112;16.694;2022-09-06T20:52:47;23.79;55.18
73792;DHT22;62122;41.112;16.694;2022-09-06T20:56:02;23.79;54.76
73792;DHT22;62122;41.112;16.694;2022-09-06T20:59:10;23.81;54.41
73792;DHT22;62122;41.112;16.694;2022-09-06T21:02:14;23.84;54.01
73792;DHT22;62122;41.112;16.694;2022-09-06T21:05:18;23.82;53.80
73792;DHT22;62122;41.112;16.694;2022-09-06T21:08:22;23.79;53.75
73792;DHT22;62122;41.112;16.694;2022-09-06T21:11:27;23.78;53.59
73792;DHT22;62122;41.112;16.694;2022-09-06T21:14:31;23.77;53.09
73792;DHT22;62122;41.112;16.694;2022-09-06T21:17:35;23.79;52.61
73792;DHT22;62122;41.112;16.694;2022-09-06T21:20:40;23.75;51.98